sensor_id;sensor_type;location;lat;lon;timestamp;pressure;altitude;pressure_sealevel;temperature;humidity
41866;BME280;27539;43.222;27.558;2023-09-19T00:01:42;63504.72;;;-145.93;100.00
41866;BME280;27539;43.222;27.558;2023-09-19T00:04:11;63504.72;;;-145.93;100.00
41866;BME280;27539;43.222;27.558;2023-09-19T00:06:37;63504.72;;;-145.93;100.00
41866;BME280;27539;43.222;27.558;2023-09-19T00:09:04;63504.72;;;-145.93;100.00
41866;BME280;27539;43.222;27.558;2023-09-19T00:11:29;63504.72;;;-145.93;100.00
41866;BME280;27539;43.222;27.558;2023-09-19T00:13:56;63504.72;;;-145.93;100.00
41866;BME280;27539;43.222;27.558;2023-09-19T00:16:22;63504.72;;;-145.93;100.00
41866;BME280;27539;43.222;27.558;2023-09-19T00:18:48;63504.72;;;-145.93;100.00
41866;BME280;27539;43.222;27.558;2023-09-19T00:21:14;63504.72;;;-145.93;100.00
41866;BME280;27539;43.222;27.558;2023-09-19T00:23:40;63504.72;;;-145.93;100.00
41866;BME280;27539;43.222;27.558;2023-09-19T00:26:06;63504.72;;;-145.93;100.00
41866;BME280;27539;43.222;27.558;2023-09-19T00:28:31;63504.72;;;-145.93;100.00
41866;BME280;27539;43.222;27.558;2023-09-19T00:30:57;63504.72;;;-145.93;100.00
41866;BME280;27539;43.222;27.558;2023-09-19T00:33:26;63504.72;;;-145.93;100.00
41866;BME280;27539;43.222;27.558;2023-09-19T00:35:53;63504.72;;;-145.93;100.00
41866;BME280;27539;43.222;27.558;2023-09-19T00:38:19;63504.72;;;-145.93;100.00
41866;BME280;27539;43.222;27.558;2023-09-19T00:40:52;63504.72;;;-145.93;100.00
41866;BME280;27539;43.222;27.558;2023-09-19T00:43:18;63504.72;;;-145.93;100.00
41866;BME280;27539;43.222;27.558;2023-09-19T00:45:46;63504.72;;;-145.93;100.00
41866;BME280;27539;43.222;27.558;2023-09-19T00:48:13;63504.72;;;-145.93;100.00
41866;BME280;27539;43.222;27.558;2023-09-19T00:50:41;63504.72;;;-145.93;100.00
41866;BME280;27539;43.222;27.558;2023-09-19T00:53:08;63504.72;;;-145.93;100.00
41866;BME280;27539;43.222;27.558;2023-09-19T00:55:38;63504.72;;;-145.93;100.00
41866;BME280;27539;43.222;27.558;2023-09-19T00:58:05;63504.72;;;-145.93;100.00
41866;BME280;27539;43.222;27.558;2023-09-19T01:00:33;63504.72;;;-145.93;100.00
41866;BME280;27539;43.222;27.558;2023-09-19T01:03:00;63504.72;;;-145.93;100.00
41866;BME280;27539;43.222;27.558;2023-09-19T01:05:29;63504.72;;;-145.93;100.00
41866;BME280;27539;43.222;27.558;2023-09-19T01:07:55;63504.72;;;-145.93;100.00
41866;BME280;27539;43.222;27.558;2023-09-19T01:10:21;63504.72;;;-145.93;100.00
41866;BME280;27539;43.222;27.558;2023-09-19T01:13:13;63504.72;;;-145.93;100.00
41866;BME280;27539;43.222;27.558;2023-09-19T01:29:50;63504.72;;;-145.93;100.00
41866;BME280;27539;43.222;27.558;2023-09-19T01:32:20;63504.72;;;-145.93;100.00
41866;BME280;27539;43.222;27.558;2023-09-19T01:34:55;63504.72;;;-145.93;100.00
41866;BME280;27539;43.222;27.558;2023-09-19T01:37:23;63504.72;;;-145.93;100.00
41866;BME280;27539;43.222;27.558;2023-09-19T01:39:56;63504.72;;;-145.93;100.00
41866;BME280;27539;43.222;27.558;2023-09-19T01:42:35;63504.72;;;-145.93;100.00
41866;BME280;27539;43.222;27.558;2023-09-19T01:45:09;63504.72;;;-145.93;100.00
41866;BME280;27539;43.222;27.558;2023-09-19T01:47:46;63504.72;;;-145.93;100.00
41866;BME280;27539;43.222;27.558;2023-09-19T01:50:38;63504.72;;;-145.93;100.00
41866;BME280;27539;43.222;27.558;2023-09-19T01:53:13;63504.72;;;-145.93;100.00
41866;BME280;27539;43.222;27.558;2023-09-19T01:55:43;63504.72;;;-145.93;100.00
41866;BME280;27539;43.222;27.558;2023-09-19T01:58:31;63504.72;;;-145.93;100.00
41866;BME280;27539;43.222;27.558;2023-09-19T02:01:00;63504.72;;;-145.93;100.00
41866;BME280;27539;43.222;27.558;2023-09-19T02:03:26;63504.72;;;-145.93;100.00
41866;BME280;27539;43.222;27.558;2023-09-19T02:05:54;63504.72;;;-145.93;100.00
41866;BME280;27539;43.222;27.558;2023-09-19T02:08:21;63504.72;;;-145.93;100.00
41866;BME280;27539;43.222;27.558;2023-09-19T02:10:50;63504.72;;;-145.93;100.00
41866;BME280;27539;43.222;27.558;2023-09-19T02:13:17;63504.72;;;-145.93;100.00
41866;BME280;27539;43.222;27.558;2023-09-19T02:15:43;63504.72;;;-145.93;100.00
41866;BME280;27539;43.222;27.558;2023-09-19T02:18:12;63504.72;;;-145.93;100.00
41866;BME280;27539;43.222;27.558;2023-09-19T02:20:41;63504.72;;;-145.93;100.00
41866;BME280;27539;43.222;27.558;2023-09-19T02:23:07;63504.72;;;-145.93;100.00
41866;BME280;27539;43.222;27.558;2023-09-19T02:25:33;63504.72;;;-145.93;100.00
41866;BME280;27539;43.222;27.558;2023-09-19T02:27:59;63504.72;;;-145.93;100.00
41866;BME280;27539;43.222;27.558;2023-09-19T02:30:26;63504.72;;;-145.93;100.00
41866;BME280;27539;43.222;27.558;2023-09-19T02:32:52;63504.72;;;-145.93;100.00
41866;BME280;27539;43.222;27.558;2023-09-19T02:35:17;63504.72;;;-145.93;100.00
41866;BME280;27539;43.222;27.558;2023-09-19T02:37:46;63504.72;;;-145.93;100.00
41866;BME280;27539;43.222;27.558;2023-09-19T02:40:12;63504.72;;;-145.93;100.00
41866;BME280;27539;43.222;27.558;2023-09-19T02:42:52;63504.72;;;-145.93;100.00
41866;BME280;27539;43.222;27.558;2023-09-19T02:45:19;63504.72;;;-145.93;100.00
41866;BME280;27539;43.222;27.558;2023-09-19T02:47:45;63504.72;;;-145.93;100.00
41866;BME280;27539;43.222;27.558;2023-09-19T02:50:11;63504.72;;;-145.93;100.00
41866;BME280;27539;43.222;27.558;2023-09-19T02:52:37;63504.72;;;-145.93;100.00
41866;BME280;27539;43.222;27.558;2023-09-19T02:55:03;63504.72;;;-145.93;100.00
41866;BME280;27539;43.222;27.558;2023-09-19T02:57:31;63504.72;;;-145.93;100.00
41866;BME280;27539;43.222;27.558;2023-09-19T02:59:58;63504.72;;;-145.93;100.00
41866;BME280;27539;43.222;27.558;2023-09-19T03:02:24;63504.72;;;-145.93;100.00
41866;BME280;27539;43.222;27.558;2023-09-19T03:04:49;63504.72;;;-145.93;100.00
41866;BME280;27539;43.222;27.558;2023-09-19T03:07:16;63504.72;;;-145.93;100.00
41866;BME280;27539;43.222;27.558;2023-09-19T03:09:42;63504.72;;;-145.93;100.00
41866;BME280;27539;43.222;27.558;2023-09-19T03:12:08;63504.72;;;-145.93;100.00
41866;BME280;27539;43.222;27.558;2023-09-19T03:14:33;63504.72;;;-145.93;100.00
41866;BME280;27539;43.222;27.558;2023-09-19T03:17:01;63504.72;;;-145.93;100.00
41866;BME280;27539;43.222;27.558;2023-09-19T03:19:30;63504.72;;;-145.93;100.00
41866;BME280;27539;43.222;27.558;2023-09-19T03:21:55;63504.72;;;-145.93;100.00
41866;BME280;27539;43.222;27.558;2023-09-19T03:24:22;63504.72;;;-145.93;100.00
41866;BME280;27539;43.222;27.558;2023-09-19T03:26:48;63504.72;;;-145.93;100.00
41866;BME280;27539;43.222;27.558;2023-09-19T03:29:14;63504.72;;;-145.93;100.00
41866;BME280;27539;43.222;27.558;2023-09-19T03:31:41;63504.72;;;-145.93;100.00
41866;BME280;27539;43.222;27.558;2023-09-19T03:34:06;63504.72;;;-145.93;100.00
41866;BME280;27539;43.222;27.558;2023-09-19T03:36:32;63504.72;;;-145.93;100.00
41866;BME280;27539;43.222;27.558;2023-09-19T03:38:57;63504.72;;;-145.93;100.00
41866;BME280;27539;43.222;27.558;2023-09-19T03:41:23;63504.72;;;-145.93;100.00
41866;BME280;27539;43.222;27.558;2023-09-19T03:43:48;63504.72;;;-145.93;100.00
41866;BME280;27539;43.222;27.558;2023-09-19T03:46:14;63504.72;;;-145.93;100.00
41866;BME280;27539;43.222;27.558;2023-09-19T03:48:40;63504.72;;;-145.93;100.00
41866;BME280;27539;43.222;27.558;2023-09-19T03:51:06;63504.72;;;-145.93;100.00
41866;BME280;27539;43.222;27.558;2023-09-19T03:53:31;63504.72;;;-145.93;100.00
41866;BME280;27539;43.222;27.558;2023-09-19T03:55:57;63504.72;;;-145.93;100.00
41866;BME280;27539;43.222;27.558;2023-09-19T03:58:22;63504.72;;;-145.93;100.00
41866;BME280;27539;43.222;27.558;2023-09-19T04:00:48;63504.72;;;-145.93;100.00
41866;BME280;27539;43.222;27.558;2023-09-19T04:03:15;63504.72;;;-145.93;100.00
41866;BME280;27539;43.222;27.558;2023-09-19T04:05:48;63504.72;;;-145.93;100.00
41866;BME280;27539;43.222;27.558;2023-09-19T04:08:14;63504.72;;;-145.93;100.00
41866;BME280;27539;43.222;27.558;2023-09-19T04:10:43;63504.72;;;-145.93;100.00
41866;BME280;27539;43.222;27.558;2023-09-19T04:13:09;63504.72;;;-145.93;100.00
41866;BME280;27539;43.222;27.558;2023-09-19T04:15:34;63504.72;;;-145.93;100.00
41866;BME280;27539;43.222;27.558;2023-09-19T04:18:00;63504.72;;;-145.93;100.00
41866;BME280;27539;43.222;27.558;2023-09-19T04:20:25;63504.72;;;-145.93;100.00
41866;BME280;27539;43.222;27.558;2023-09-19T04:22:51;63504.72;;;-145.93;100.00
41866;BME280;27539;43.222;27.558;2023-09-19T04:25:16;63504.72;;;-145.93;100.00
41866;BME280;27539;43.222;27.558;2023-09-19T04:27:44;63504.72;;;-145.93;100.00
41866;BME280;27539;43.222;27.558;2023-09-19T04:30:09;63504.72;;;-145.93;100.00
41866;BME280;27539;43.222;27.558;2023-09-19T04:32:36;63504.72;;;-145.93;100.00
41866;BME280;27539;43.222;27.558;2023-09-19T04:35:08;63504.72;;;-145.93;100.00
41866;BME280;27539;43.222;27.558;2023-09-19T04:37:38;63504.72;;;-145.93;100.00
41866;BME280;27539;43.222;27.558;2023-09-19T04:40:09;63504.72;;;-145.93;100.00
41866;BME280;27539;43.222;27.558;2023-09-19T04:42:40;63504.72;;;-145.93;100.00
41866;BME280;27539;43.222;27.558;2023-09-19T04:45:06;63504.72;;;-145.93;100.00
41866;BME280;27539;43.222;27.558;2023-09-19T04:47:32;63504.72;;;-145.93;100.00
41866;BME280;27539;43.222;27.558;2023-09-19T04:49:57;63504.72;;;-145.93;100.00
41866;BME280;27539;43.222;27.558;2023-09-19T04:52:24;63504.72;;;-145.93;100.00
41866;BME280;27539;43.222;27.558;2023-09-19T04:54:49;63504.72;;;-145.93;100.00
41866;BME280;27539;43.222;27.558;2023-09-19T04:57:15;63504.72;;;-145.93;100.00
41866;BME280;27539;43.222;27.558;2023-09-19T04:59:41;63504.72;;;-145.93;100.00
41866;BME280;27539;43.222;27.558;2023-09-19T05:02:06;63504.72;;;-145.93;100.00
41866;BME280;27539;43.222;27.558;2023-09-19T05:04:33;63504.72;;;-145.93;100.00
41866;BME280;27539;43.222;27.558;2023-09-19T05:06:59;63504.72;;;-145.93;100.00
41866;BME280;27539;43.222;27.558;2023-09-19T05:09:26;63504.72;;;-145.93;100.00
41866;BME280;27539;43.222;27.558;2023-09-19T05:11:51;63504.72;;;-145.93;100.00
41866;BME280;27539;43.222;27.558;2023-09-19T05:14:18;63504.72;;;-145.93;100.00
41866;BME280;27539;43.222;27.558;2023-09-19T05:16:44;63504.72;;;-145.93;100.00
41866;BME280;27539;43.222;27.558;2023-09-19T05:19:09;63504.72;;;-145.93;100.00
41866;BME280;27539;43.222;27.558;2023-09-19T05:21:37;63504.72;;;-145.93;100.00
41866;BME280;27539;43.222;27.558;2023-09-19T05:24:05;63504.72;;;-145.93;100.00
41866;BME280;27539;43.222;27.558;2023-09-19T05:26:32;63504.72;;;-145.93;100.00
41866;BME280;27539;43.222;27.558;2023-09-19T05:28:57;63504.72;;;-145.93;100.00
41866;BME280;27539;43.222;27.558;2023-09-19T05:31:23;63504.72;;;-145.93;100.00
41866;BME280;27539;43.222;27.558;2023-09-19T05:33:49;63504.72;;;-145.93;100.00
41866;BME280;27539;43.222;27.558;2023-09-19T05:36:15;63504.72;;;-145.93;100.00
41866;BME280;27539;43.222;27.558;2023-09-19T05:38:41;63504.72;;;-145.93;100.00
41866;BME280;27539;43.222;27.558;2023-09-19T05:41:07;63504.72;;;-145.93;100.00
41866;BME280;27539;43.222;27.558;2023-09-19T05:43:34;63504.72;;;-145.93;100.00
41866;BME280;27539;43.222;27.558;2023-09-19T05:46:02;63504.72;;;-145.93;100.00
41866;BME280;27539;43.222;27.558;2023-09-19T05:48:28;63504.72;;;-145.93;100.00
41866;BME280;27539;43.222;27.558;2023-09-19T05:50:53;63504.72;;;-145.93;100.00
41866;BME280;27539;43.222;27.558;2023-09-19T05:53:19;63504.72;;;-145.93;100.00
41866;BME280;27539;43.222;27.558;2023-09-19T05:55:44;63504.72;;;-145.93;100.00
41866;BME280;27539;43.222;27.558;2023-09-19T05:58:10;63504.72;;;-145.93;100.00
41866;BME280;27539;43.222;27.558;2023-09-19T06:00:39;63504.72;;;-145.93;100.00
41866;BME280;27539;43.222;27.558;2023-09-19T06:03:06;63504.72;;;-145.93;100.00
41866;BME280;27539;43.222;27.558;2023-09-19T06:05:32;63504.72;;;-145.93;100.00
41866;BME280;27539;43.222;27.558;2023-09-19T06:07:58;63504.72;;;-145.93;100.00
41866;BME280;27539;43.222;27.558;2023-09-19T06:10:26;63504.72;;;-145.93;100.00
41866;BME280;27539;43.222;27.558;2023-09-19T06:12:53;63504.72;;;-145.93;100.00
41866;BME280;27539;43.222;27.558;2023-09-19T06:15:21;63504.72;;;-145.93;100.00
41866;BME280;27539;43.222;27.558;2023-09-19T06:17:51;63504.72;;;-145.93;100.00
41866;BME280;27539;43.222;27.558;2023-09-19T06:20:20;63504.72;;;-145.93;100.00
41866;BME280;27539;43.222;27.558;2023-09-19T06:22:47;63504.72;;;-145.93;100.00
41866;BME280;27539;43.222;27.558;2023-09-19T06:25:14;63504.72;;;-145.93;100.00
41866;BME280;27539;43.222;27.558;2023-09-19T06:27:49;63504.72;;;-145.93;100.00
41866;BME280;27539;43.222;27.558;2023-09-19T06:30:18;63504.72;;;-145.93;100.00
41866;BME280;27539;43.222;27.558;2023-09-19T06:32:43;63504.72;;;-145.93;100.00
41866;BME280;27539;43.222;27.558;2023-09-19T06:35:10;63504.72;;;-145.93;100.00
41866;BME280;27539;43.222;27.558;2023-09-19T06:37:40;63504.72;;;-145.93;100.00
41866;BME280;27539;43.222;27.558;2023-09-19T06:40:13;63504.72;;;-145.93;100.00
41866;BME280;27539;43.222;27.558;2023-09-19T06:42:52;63504.72;;;-145.93;100.00
41866;BME280;27539;43.222;27.558;2023-09-19T06:45:21;63504.72;;;-145.93;100.00
41866;BME280;27539;43.222;27.558;2023-09-19T06:47:50;63504.72;;;-145.93;100.00
41866;BME280;27539;43.222;27.558;2023-09-19T06:50:20;63504.72;;;-145.93;100.00
41866;BME280;27539;43.222;27.558;2023-09-19T06:52:48;63504.72;;;-145.93;100.00
41866;BME280;27539;43.222;27.558;2023-09-19T06:55:15;63504.72;;;-145.93;100.00
41866;BME280;27539;43.222;27.558;2023-09-19T06:57:42;63504.72;;;-145.93;100.00
41866;BME280;27539;43.222;27.558;2023-09-19T07:00:09;63504.72;;;-145.93;100.00
41866;BME280;27539;43.222;27.558;2023-09-19T07:02:45;63504.72;;;-145.93;100.00
41866;BME280;27539;43.222;27.558;2023-09-19T07:05:11;63504.72;;;-145.93;100.00
41866;BME280;27539;43.222;27.558;2023-09-19T07:07:36;63504.72;;;-145.93;100.00
41866;BME280;27539;43.222;27.558;2023-09-19T07:10:03;63504.72;;;17.13;100.00
41866;BME280;27539;43.222;27.558;2023-09-19T07:12:35;63504.72;;;-145.93;100.00
41866;BME280;27539;43.222;27.558;2023-09-19T07:15:01;63504.72;;;-145.93;100.00
41866;BME280;27539;43.222;27.558;2023-09-19T07:17:27;63504.72;;;-145.93;100.00
41866;BME280;27539;43.222;27.558;2023-09-19T07:19:54;63504.72;;;-145.93;100.00
41866;BME280;27539;43.222;27.558;2023-09-19T07:22:19;63504.72;;;-145.93;100.00
41866;BME280;27539;43.222;27.558;2023-09-19T07:24:45;63504.72;;;-145.93;100.00
41866;BME280;27539;43.222;27.558;2023-09-19T07:27:10;63504.72;;;-145.93;100.00
41866;BME280;27539;43.222;27.558;2023-09-19T07:29:36;63504.72;;;-145.93;100.00
41866;BME280;27539;43.222;27.558;2023-09-19T07:32:03;63504.72;;;-145.93;100.00
41866;BME280;27539;43.222;27.558;2023-09-19T07:34:28;63504.72;;;-145.93;100.00
41866;BME280;27539;43.222;27.558;2023-09-19T07:36:54;63504.72;;;-145.93;100.00
41866;BME280;27539;43.222;27.558;2023-09-19T07:39:19;63504.72;;;-145.93;100.00
41866;BME280;27539;43.222;27.558;2023-09-19T07:41:45;63504.72;;;-145.93;100.00
41866;BME280;27539;43.222;27.558;2023-09-19T07:44:11;63504.72;;;-145.93;100.00
41866;BME280;27539;43.222;27.558;2023-09-19T07:46:37;63504.72;;;-145.93;100.00
41866;BME280;27539;43.222;27.558;2023-09-19T07:49:02;63504.72;;;-145.93;100.00
41866;BME280;27539;43.222;27.558;2023-09-19T07:51:28;63504.72;;;-145.93;100.00
41866;BME280;27539;43.222;27.558;2023-09-19T07:53:54;63504.72;;;-145.93;100.00
41866;BME280;27539;43.222;27.558;2023-09-19T07:56:20;63504.72;;;-145.93;100.00
41866;BME280;27539;43.222;27.558;2023-09-19T07:58:46;63504.72;;;-145.93;100.00
41866;BME280;27539;43.222;27.558;2023-09-19T08:01:12;63504.72;;;-145.93;100.00
41866;BME280;27539;43.222;27.558;2023-09-19T08:03:39;63504.72;;;-145.93;100.00
41866;BME280;27539;43.222;27.558;2023-09-19T08:06:09;100831.22;;;23.66;100.00
41866;BME280;27539;43.222;27.558;2023-09-19T08:08:35;84706.00;;;23.66;100.00
41866;BME280;27539;43.222;27.558;2023-09-19T08:11:03;100789.13;;;26.05;100.00
41866;BME280;27539;43.222;27.558;2023-09-19T08:13:49;100792.19;;;26.42;81.35
41866;BME280;27539;43.222;27.558;2023-09-19T08:16:16;100799.41;;;26.18;79.77
41866;BME280;27539;43.222;27.558;2023-09-19T08:18:47;100785.59;;;26.08;81.27
41866;BME280;27539;43.222;27.558;2023-09-19T08:21:13;63504.72;;;-145.93;100.00
41866;BME280;27539;43.222;27.558;2023-09-19T08:23:40;63504.72;;;-145.93;100.00
41866;BME280;27539;43.222;27.558;2023-09-19T08:26:06;63504.72;;;-145.93;100.00
41866;BME280;27539;43.222;27.558;2023-09-19T08:28:35;63504.72;;;-145.93;100.00
41866;BME280;27539;43.222;27.558;2023-09-19T08:31:02;63504.72;;;-145.93;100.00
41866;BME280;27539;43.222;27.558;2023-09-19T08:33:29;63504.72;;;-145.93;100.00
41866;BME280;27539;43.222;27.558;2023-09-19T08:35:55;63504.72;;;-145.93;100.00
41866;BME280;27539;43.222;27.558;2023-09-19T08:38:21;63504.72;;;-145.93;100.00
41866;BME280;27539;43.222;27.558;2023-09-19T08:40:46;63504.72;;;-145.93;100.00
41866;BME280;27539;43.222;27.558;2023-09-19T08:43:12;100753.03;;;26.84;64.51
41866;BME280;27539;43.222;27.558;2023-09-19T08:45:38;100714.81;;;26.64;61.78
41866;BME280;27539;43.222;27.558;2023-09-19T08:48:23;100732.66;;;26.74;67.05
41866;BME280;27539;43.222;27.558;2023-09-19T08:51:03;63504.72;;;-145.93;100.00
41866;BME280;27539;43.222;27.558;2023-09-19T08:56:29;100736.34;;;26.74;48.20
41866;BME280;27539;43.222;27.558;2023-09-19T08:59:00;63504.72;;;-145.93;100.00
41866;BME280;27539;43.222;27.558;2023-09-19T09:01:28;63504.72;;;26.74;100.00
41866;BME280;27539;43.222;27.558;2023-09-19T09:03:55;100738.22;;;26.16;75.73
41866;BME280;27539;43.222;27.558;2023-09-19T09:06:21;100738.22;;;26.16;100.00
41866;BME280;27539;43.222;27.558;2023-09-19T09:08:47;100732.28;;;26.08;77.63
41866;BME280;27539;43.222;27.558;2023-09-19T09:11:15;100731.81;;;26.40;74.39
41866;BME280;27539;43.222;27.558;2023-09-19T09:13:43;100722.16;;;26.65;72.92
41866;BME280;27539;43.222;27.558;2023-09-19T09:16:10;100718.44;;;26.53;72.19
41866;BME280;27539;43.222;27.558;2023-09-19T09:18:41;100676.75;;;26.27;74.32
41866;BME280;27539;43.222;27.558;2023-09-19T09:21:06;100722.63;;;26.55;71.69
41866;BME280;27539;43.222;27.558;2023-09-19T09:23:32;100726.19;;;26.10;74.74
41866;BME280;27539;43.222;27.558;2023-09-19T09:25:59;100716.00;;;26.09;73.65
41866;BME280;27539;43.222;27.558;2023-09-19T09:28:29;100719.41;;;26.57;68.70
41866;BME280;27539;43.222;27.558;2023-09-19T09:30:56;100691.97;;;26.64;66.60
41866;BME280;27539;43.222;27.558;2023-09-19T09:33:23;100701.69;;;26.63;72.57
41866;BME280;27539;43.222;27.558;2023-09-19T09:35:50;100711.03;;;26.85;68.72
41866;BME280;27539;43.222;27.558;2023-09-19T09:38:21;100710.59;;;27.07;72.26
41866;BME280;27539;43.222;27.558;2023-09-19T09:40:48;100714.16;;;27.04;69.76
41866;BME280;27539;43.222;27.558;2023-09-19T09:43:40;100688.47;;;27.17;66.08
41866;BME280;27539;43.222;27.558;2023-09-19T09:46:14;100709.19;;;27.38;65.35
41866;BME280;27539;43.222;27.558;2023-09-19T09:49:06;100703.47;;;27.26;65.98
41866;BME280;27539;43.222;27.558;2023-09-19T09:51:49;100702.97;;;27.48;66.25
41866;BME280;27539;43.222;27.558;2023-09-19T09:54:26;100656.34;;;27.32;65.18
41866;BME280;27539;43.222;27.558;2023-09-19T09:57:06;100705.75;;;27.20;68.36
41866;BME280;27539;43.222;27.558;2023-09-19T09:59:50;100653.38;;;27.04;65.95
41866;BME280;27539;43.222;27.558;2023-09-19T10:02:18;100679.88;;;27.41;68.97
41866;BME280;27539;43.222;27.558;2023-09-19T10:04:53;100613.59;;;27.35;68.76
41866;BME280;27539;43.222;27.558;2023-09-19T10:07:34;100647.84;;;27.60;65.52
41866;BME280;27539;43.222;27.558;2023-09-19T10:10:33;100683.06;;;27.76;67.90
41866;BME280;27539;43.222;27.558;2023-09-19T10:13:13;100672.06;;;27.91;66.11
41866;BME280;27539;43.222;27.558;2023-09-19T10:15:47;100675.47;;;28.09;64.37
41866;BME280;27539;43.222;27.558;2023-09-19T10:18:24;100682.34;;;28.20;64.40
41866;BME280;27539;43.222;27.558;2023-09-19T10:20:50;100675.00;;;28.35;64.99
41866;BME280;27539;43.222;27.558;2023-09-19T10:23:18;100672.47;;;28.46;62.44
41866;BME280;27539;43.222;27.558;2023-09-19T10:25:51;100670.34;;;28.58;60.48
41866;BME280;27539;43.222;27.558;2023-09-19T10:28:18;100668.50;;;28.50;60.61
41866;BME280;27539;43.222;27.558;2023-09-19T10:30:57;100669.09;;;28.43;63.77
41866;BME280;27539;43.222;27.558;2023-09-19T10:33:24;100668.19;;;28.39;63.28
41866;BME280;27539;43.222;27.558;2023-09-19T10:35:53;100669.91;;;28.44;61.26
41866;BME280;27539;43.222;27.558;2023-09-19T10:38:26;100640.09;;;28.29;63.40
41866;BME280;27539;43.222;27.558;2023-09-19T10:40:55;100655.84;;;28.51;60.65
41866;BME280;27539;43.222;27.558;2023-09-19T10:43:29;100651.25;;;28.62;59.81
41866;BME280;27539;43.222;27.558;2023-09-19T10:45:59;100653.38;;;28.65;61.52
41866;BME280;27539;43.222;27.558;2023-09-19T10:48:25;100652.06;;;28.79;63.93
41866;BME280;27539;43.222;27.558;2023-09-19T10:51:12;100655.97;;;29.02;60.43
41866;BME280;27539;43.222;27.558;2023-09-19T10:53:56;100658.19;;;29.09;59.87
41866;BME280;27539;43.222;27.558;2023-09-19T10:56:38;100657.16;;;28.85;57.47
41866;BME280;27539;43.222;27.558;2023-09-19T10:59:11;100623.47;;;28.63;57.23
41866;BME280;27539;43.222;27.558;2023-09-19T11:01:47;100652.81;;;28.76;59.31
41866;BME280;27539;43.222;27.558;2023-09-19T11:04:35;100644.69;;;28.94;56.31
41866;BME280;27539;43.222;27.558;2023-09-19T11:07:11;100642.41;;;28.99;53.56
41866;BME280;27539;43.222;27.558;2023-09-19T11:09:55;100639.13;;;29.17;54.42
41866;BME280;27539;43.222;27.558;2023-09-19T11:26:42;100609.66;;;29.32;51.96
41866;BME280;27539;43.222;27.558;2023-09-19T11:29:34;100609.38;;;29.21;50.37
41866;BME280;27539;43.222;27.558;2023-09-19T11:32:01;100605.16;;;29.15;50.12
41866;BME280;27539;43.222;27.558;2023-09-19T11:37:01;100583.94;;;28.84;52.19
41866;BME280;27539;43.222;27.558;2023-09-19T11:39:30;100604.81;;;28.85;51.55
41866;BME280;27539;43.222;27.558;2023-09-19T11:41:55;100603.75;;;29.09;53.60
41866;BME280;27539;43.222;27.558;2023-09-19T11:49:30;100610.19;;;29.38;51.36
41866;BME280;27539;43.222;27.558;2023-09-19T11:52:01;100595.72;;;29.50;52.86
41866;BME280;27539;43.222;27.558;2023-09-19T11:54:31;100567.53;;;29.17;52.18
41866;BME280;27539;43.222;27.558;2023-09-19T11:56:58;100602.28;;;29.15;49.78
41866;BME280;27539;43.222;27.558;2023-09-19T11:59:28;100601.28;;;29.43;51.23
41866;BME280;27539;43.222;27.558;2023-09-19T12:02:01;100594.38;;;29.63;50.92
41866;BME280;27539;43.222;27.558;2023-09-19T12:04:35;100576.25;;;29.59;50.24
41866;BME280;27539;43.222;27.558;2023-09-19T12:07:13;100583.09;;;29.70;51.17
41866;BME280;27539;43.222;27.558;2023-09-19T12:09:42;100582.25;;;29.70;50.86
41866;BME280;27539;43.222;27.558;2023-09-19T12:12:22;100578.81;;;29.45;51.10
41866;BME280;27539;43.222;27.558;2023-09-19T12:14:48;100557.19;;;29.67;49.00
41866;BME280;27539;43.222;27.558;2023-09-19T12:17:14;100577.09;;;29.60;47.76
41866;BME280;27539;43.222;27.558;2023-09-19T12:19:50;100574.53;;;29.55;50.41
41866;BME280;27539;43.222;27.558;2023-09-19T12:22:16;100565.81;;;29.32;52.17
41866;BME280;27539;43.222;27.558;2023-09-19T12:24:44;100575.03;;;29.41;54.98
41866;BME280;27539;43.222;27.558;2023-09-19T12:27:10;100582.28;;;29.54;53.74
41866;BME280;27539;43.222;27.558;2023-09-19T12:29:44;100581.59;;;29.41;52.93
41866;BME280;27539;43.222;27.558;2023-09-19T12:32:10;100581.06;;;29.36;50.49
41866;BME280;27539;43.222;27.558;2023-09-19T12:34:36;100558.16;;;29.36;52.38
41866;BME280;27539;43.222;27.558;2023-09-19T12:37:14;100571.06;;;29.10;55.12
41866;BME280;27539;43.222;27.558;2023-09-19T12:39:51;100554.50;;;29.03;55.60
41866;BME280;27539;43.222;27.558;2023-09-19T12:42:26;100561.72;;;29.13;54.48
41866;BME280;27539;43.222;27.558;2023-09-19T12:44:58;100543.63;;;28.93;55.07
41866;BME280;27539;43.222;27.558;2023-09-19T12:47:27;100544.34;;;29.22;56.57
41866;BME280;27539;43.222;27.558;2023-09-19T12:50:14;100557.66;;;29.49;53.43
41866;BME280;27539;43.222;27.558;2023-09-19T12:52:49;100551.16;;;29.53;51.96
41866;BME280;27539;43.222;27.558;2023-09-19T12:55:28;100529.72;;;29.46;52.02
41866;BME280;27539;43.222;27.558;2023-09-19T13:00:37;100542.84;;;29.67;51.97
41866;BME280;27539;43.222;27.558;2023-09-19T13:03:18;100544.38;;;29.80;53.40
41866;BME280;27539;43.222;27.558;2023-09-19T13:05:59;100552.41;;;29.94;51.87
41866;BME280;27539;43.222;27.558;2023-09-19T13:08:28;100539.75;;;29.56;54.20
41866;BME280;27539;43.222;27.558;2023-09-19T13:11:17;100556.00;;;29.68;56.92
41866;BME280;27539;43.222;27.558;2023-09-19T13:14:13;100558.66;;;29.41;58.25
41866;BME280;27539;43.222;27.558;2023-09-19T13:16:57;100545.16;;;29.61;57.71
41866;BME280;27539;43.222;27.558;2023-09-19T13:24:49;100513.66;;;29.22;62.81
41866;BME280;27539;43.222;27.558;2023-09-19T13:27:16;100537.47;;;29.46;62.19